Time;durP1;ratioP1;P1;durP2;ratioP2;P2;SDS_P1;SDS_P2;PMS_P1;PMS_P2;Temp;Humidity;BMP_temperature;BMP_pressure;BME280_temperature;BME280_humidity;BME280_pressure;Samples;Min_cycle;Max_cycle;Signal;HPM_P1;HPM_P2
2022/11/28 00:00:32;;;;;;;2.00;1.80;;;;;;;;;;4617508;27;20040;-58
2022/11/28 00:02:43;;;;;;;2.03;1.90;;;;;;;;;;4615482;27;20125;-57
2022/11/28 00:04:53;;;;;;;2.92;2.17;;;;;;;;;;4600943;27;20881;-58
2022/11/28 00:07:04;;;;;;;2.35;1.92;;;;;;;;;;4600985;27;20092;-58
2022/11/28 00:09:15;;;;;;;2.42;1.85;;;;;;;;;;4614464;27;20055;-58
2022/11/28 00:11:26;;;;;;;3.10;2.00;;;;;;;;;;4615423;27;20081;-58
2022/11/28 00:13:36;;;;;;;1.90;1.80;;;;;;;;;;4615093;27;20212;-58
2022/11/28 00:15:57;;;;;;;2.28;1.80;;;;;;;;;;4615500;27;20204;-58
2022/11/28 00:18:07;;;;;;;2.20;2.00;;;;;;;;;;4614357;27;20150;-58
2022/11/28 00:20:17;;;;;;;1.85;1.75;;;;;;;;;;4596290;27;20127;-58
2022/11/28 00:22:28;;;;;;;2.08;1.85;;;;;;;;;;4615315;27;20023;-58
2022/11/28 00:24:38;;;;;;;2.20;1.95;;;;;;;;;;4614177;27;20065;-58
2022/11/28 00:26:48;;;;;;;2.10;1.90;;;;;;;;;;4598142;27;20569;-58
2022/11/28 00:28:59;;;;;;;2.40;2.13;;;;;;;;;;4615446;27;20035;-59
2022/11/28 00:31:14;;;;;;;2.10;1.90;;;;;;;;;;4596338;27;20043;-58
2022/11/28 00:33:24;;;;;;;2.55;1.80;;;;;;;;;;4615170;27;20052;-58
2022/11/28 00:35:34;;;;;;;2.25;1.90;;;;;;;;;;4605342;27;20406;-58
2022/11/28 00:37:44;;;;;;;1.90;1.77;;;;;;;;;;4606454;27;20119;-58
2022/11/28 00:39:55;;;;;;;1.92;1.73;;;;;;;;;;4615636;27;20144;-59
2022/11/28 00:42:05;;;;;;;2.00;1.80;;;;;;;;;;4602029;27;20069;-58
2022/11/28 00:44:15;;;;;;;1.88;1.60;;;;;;;;;;4617069;27;20487;-58
2022/11/28 00:46:26;;;;;;;1.88;1.67;;;;;;;;;;4615439;27;20163;-58
2022/11/28 00:48:37;;;;;;;1.60;1.50;;;;;;;;;;4616527;27;20089;-59
2022/11/28 00:50:47;;;;;;;1.90;1.70;;;;;;;;;;4617104;27;20134;-58
2022/11/28 00:52:57;;;;;;;1.58;1.48;;;;;;;;;;4615950;27;20026;-58
2022/11/28 00:55:08;;;;;;;1.90;1.70;;;;;;;;;;4615965;27;20524;-59
2022/11/28 00:57:18;;;;;;;2.05;1.60;;;;;;;;;;4616944;27;20091;-58
2022/11/28 00:59:28;;;;;;;1.75;1.65;;;;;;;;;;4616805;27;20027;-58
2022/11/28 01:01:40;;;;;;;1.90;1.70;;;;;;;;;;4615333;27;20514;-58
2022/11/28 01:03:51;;;;;;;2.28;1.88;;;;;;;;;;4615748;27;20585;-58
2022/11/28 01:06:01;;;;;;;1.83;1.70;;;;;;;;;;4615287;27;20034;-58
2022/11/28 01:08:12;;;;;;;2.30;1.65;;;;;;;;;;4601351;27;20663;-59
2022/11/28 01:10:22;;;;;;;2.00;1.80;;;;;;;;;;4614827;27;20018;-58
2022/11/28 01:12:32;;;;;;;1.92;1.73;;;;;;;;;;4616680;27;20439;-58
2022/11/28 01:14:43;;;;;;;1.92;1.73;;;;;;;;;;4616869;27;20696;-58
2022/11/28 01:16:53;;;;;;;2.03;1.83;;;;;;;;;;4607657;27;20566;-58
2022/11/28 01:19:03;;;;;;;2.05;1.77;;;;;;;;;;4617163;27;20043;-58
2022/11/28 01:21:14;;;;;;;2.15;1.80;;;;;;;;;;4600587;27;20100;-58
2022/11/28 01:23:24;;;;;;;2.17;1.90;;;;;;;;;;4615699;27;20038;-58
2022/11/28 01:25:34;;;;;;;2.00;1.80;;;;;;;;;;4617459;27;20502;-58
2022/11/28 01:27:45;;;;;;;2.25;1.77;;;;;;;;;;4616536;27;20761;-59
2022/11/28 01:29:55;;;;;;;2.08;1.85;;;;;;;;;;4616734;27;20047;-59
2022/11/28 01:32:05;;;;;;;2.72;1.73;;;;;;;;;;4618806;27;20121;-58
2022/11/28 01:34:16;;;;;;;2.33;1.90;;;;;;;;;;4620287;27;20120;-59
2022/11/28 01:36:27;;;;;;;2.00;1.80;;;;;;;;;;4618445;27;20049;-58
2022/11/28 01:38:37;;;;;;;2.10;1.90;;;;;;;;;;4617826;27;20041;-58
2022/11/28 01:40:48;;;;;;;1.83;1.60;;;;;;;;;;4618756;27;20039;-58
2022/11/28 01:42:58;;;;;;;1.90;1.70;;;;;;;;;;4619353;27;20038;-58
2022/11/28 01:45:29;;;;;;;2.10;1.90;;;;;;;;;;4619143;27;20160;-59
2022/11/28 01:47:39;;;;;;;1.88;1.70;;;;;;;;;;4616378;27;20043;-58
2022/11/28 01:49:50;;;;;;;2.10;1.70;;;;;;;;;;4618736;27;20038;-58
2022/11/28 01:52:02;;;;;;;1.83;1.70;;;;;;;;;;4618796;27;20047;-59
2022/11/28 01:54:13;;;;;;;1.58;1.48;;;;;;;;;;4618660;27;20055;-58
2022/11/28 01:56:25;;;;;;;1.63;1.50;;;;;;;;;;4619105;27;20122;-59
2022/11/28 01:58:39;;;;;;;1.90;1.70;;;;;;;;;;4620288;27;20035;-59
2022/11/28 02:00:49;;;;;;;1.40;1.30;;;;;;;;;;4619646;27;20103;-58
2022/11/28 02:03:02;;;;;;;1.95;1.75;;;;;;;;;;4619194;27;20547;-58
2022/11/28 02:05:13;;;;;;;2.00;1.65;;;;;;;;;;4619900;27;20042;-59
2022/11/28 02:07:23;;;;;;;1.80;1.60;;;;;;;;;;4619586;27;20034;-59
2022/11/28 02:09:33;;;;;;;2.10;1.90;;;;;;;;;;4619478;27;20031;-58
2022/11/28 02:11:47;;;;;;;2.00;1.70;;;;;;;;;;4600656;27;20043;-58
2022/11/28 02:14:16;;;;;;;2.30;1.80;;;;;;;;;;4619266;27;20193;-58
2022/11/28 02:16:38;;;;;;;1.75;1.65;;;;;;;;;;4617465;27;20043;-58
2022/11/28 02:18:48;;;;;;;1.77;1.58;;;;;;;;;;4618491;27;20068;-58
2022/11/28 02:21:01;;;;;;;1.77;1.60;;;;;;;;;;4620452;27;20027;-58
2022/11/28 02:23:24;;;;;;;2.28;1.75;;;;;;;;;;4618177;27;20031;-58
2022/11/28 02:25:37;;;;;;;1.52;1.40;;;;;;;;;;4618202;27;20036;-59
2022/11/28 02:28:07;;;;;;;1.77;1.50;;;;;;;;;;4617770;27;20038;-58
2022/11/28 02:30:19;;;;;;;1.73;1.63;;;;;;;;;;4620269;27;20038;-59
2022/11/28 02:32:39;;;;;;;1.70;1.60;;;;;;;;;;4618460;27;20051;-58
2022/11/28 02:34:58;;;;;;;1.85;1.52;;;;;;;;;;4610786;27;20039;-59
2022/11/28 02:37:21;;;;;;;1.58;1.48;;;;;;;;;;4618564;27;20146;-58
2022/11/28 02:39:43;;;;;;;1.73;1.63;;;;;;;;;;4618688;27;20034;-58
2022/11/28 02:42:17;;;;;;;2.17;1.73;;;;;;;;;;4618537;27;20076;-59
2022/11/28 02:44:33;;;;;;;1.45;1.35;;;;;;;;;;4585696;27;20597;-58
2022/11/28 02:46:52;;;;;;;1.60;1.50;;;;;;;;;;4618451;27;20041;-58
2022/11/28 02:49:02;;;;;;;2.35;1.65;;;;;;;;;;4619146;27;20026;-59
2022/11/28 02:51:15;;;;;;;2.40;1.50;;;;;;;;;;4619108;27;20047;-59
2022/11/28 02:53:27;;;;;;;1.83;1.60;;;;;;;;;;4618957;27;20142;-58
2022/11/28 02:55:39;;;;;;;1.60;1.45;;;;;;;;;;4619182;27;20999;-59
2022/11/28 02:57:50;;;;;;;1.60;1.50;;;;;;;;;;4618239;27;20060;-59
2022/11/28 03:00:00;;;;;;;1.63;1.52;;;;;;;;;;4618830;27;20019;-59
2022/11/28 03:02:11;;;;;;;1.70;1.60;;;;;;;;;;4617820;27;20040;-58
2022/11/28 03:04:40;;;;;;;1.70;1.60;;;;;;;;;;4619161;27;20092;-58
2022/11/28 03:06:50;;;;;;;2.28;1.50;;;;;;;;;;4617713;27;20039;-59
2022/11/28 03:09:19;;;;;;;1.75;1.50;;;;;;;;;;4618170;27;20039;-58
2022/11/28 03:11:39;;;;;;;1.80;1.50;;;;;;;;;;4618934;27;20083;-58
2022/11/28 03:13:49;;;;;;;1.90;1.70;;;;;;;;;;4618686;27;20139;-58
2022/11/28 03:16:16;;;;;;;2.13;1.73;;;;;;;;;;4618291;27;20575;-60
2022/11/28 03:18:32;;;;;;;1.92;1.67;;;;;;;;;;4620232;27;20661;-58
2022/11/28 03:20:50;;;;;;;1.50;1.40;;;;;;;;;;4618488;27;20030;-58
2022/11/28 03:23:13;;;;;;;1.35;1.25;;;;;;;;;;4618055;27;20124;-58
2022/11/28 03:25:29;;;;;;;1.70;1.60;;;;;;;;;;4617267;27;20035;-59
2022/11/28 03:27:45;;;;;;;2.07;1.60;;;;;;;;;;4618367;27;20035;-58
2022/11/28 03:29:57;;;;;;;1.65;1.40;;;;;;;;;;4618184;27;20557;-59
2022/11/28 03:32:13;;;;;;;1.60;1.50;;;;;;;;;;4617210;27;20035;-58
2022/11/28 03:34:25;;;;;;;1.70;1.50;;;;;;;;;;4618421;27;20924;-58
2022/11/28 03:36:50;;;;;;;1.60;1.50;;;;;;;;;;4598763;27;20619;-58
2022/11/28 03:39:07;;;;;;;1.88;1.67;;;;;;;;;;4618297;27;20027;-59
2022/11/28 03:41:22;;;;;;;1.70;1.58;;;;;;;;;;4597996;27;20138;-59
2022/11/28 03:43:35;;;;;;;1.70;1.60;;;;;;;;;;4616705;27;20031;-58
2022/11/28 03:45:47;;;;;;;2.55;1.65;;;;;;;;;;4617636;27;20038;-59
2022/11/28 03:48:01;;;;;;;2.20;1.50;;;;;;;;;;4617605;27;21022;-57
2022/11/28 03:50:23;;;;;;;1.70;1.52;;;;;;;;;;4616933;27;20023;-59
2022/11/28 03:52:42;;;;;;;1.50;1.40;;;;;;;;;;4616763;27;20039;-58
2022/11/28 03:54:55;;;;;;;1.60;1.50;;;;;;;;;;4617511;27;20124;-60
2022/11/28 03:57:16;;;;;;;1.65;1.50;;;;;;;;;;4618771;27;20118;-58
2022/11/28 03:59:32;;;;;;;1.98;1.77;;;;;;;;;;4599289;27;20039;-58
2022/11/28 04:01:48;;;;;;;2.13;1.65;;;;;;;;;;4615771;27;20043;-59
2022/11/28 04:04:21;;;;;;;1.90;1.70;;;;;;;;;;4615988;27;20151;-58
2022/11/28 04:06:38;;;;;;;1.90;1.67;;;;;;;;;;4607629;27;20058;-59
2022/11/28 04:08:54;;;;;;;1.70;1.60;;;;;;;;;;4617379;27;20512;-58
2022/11/28 04:11:24;;;;;;;2.00;1.70;;;;;;;;;;4618489;27;20097;-59
2022/11/28 04:13:43;;;;;;;1.70;1.60;;;;;;;;;;4617520;27;20043;-58
2022/11/28 04:16:06;;;;;;;1.65;1.55;;;;;;;;;;4618222;27;20031;-59
2022/11/28 04:18:20;;;;;;;1.90;1.70;;;;;;;;;;4617730;27;20039;-59
2022/11/28 04:20:50;;;;;;;1.58;1.48;;;;;;;;;;4617754;27;20035;-59
2022/11/28 04:23:04;;;;;;;2.10;1.90;;;;;;;;;;4617624;27;20583;-59
2022/11/28 04:25:16;;;;;;;1.63;1.52;;;;;;;;;;4598046;27;20027;-58
2022/11/28 04:27:30;;;;;;;2.13;1.80;;;;;;;;;;4617839;27;20038;-59
2022/11/28 04:29:43;;;;;;;1.98;1.60;;;;;;;;;;4616413;27;20105;-58
2022/11/28 04:31:54;;;;;;;2.00;1.80;;;;;;;;;;4600902;27;20179;-58
2022/11/28 04:34:06;;;;;;;1.80;1.70;;;;;;;;;;4617568;27;20057;-59
2022/11/28 04:36:19;;;;;;;1.90;1.70;;;;;;;;;;4616950;27;20035;-58
2022/11/28 04:38:30;;;;;;;1.70;1.60;;;;;;;;;;4616598;27;20023;-59
2022/11/28 04:40:45;;;;;;;1.65;1.55;;;;;;;;;;4617511;27;20154;-59
2022/11/28 04:43:06;;;;;;;1.70;1.60;;;;;;;;;;4617849;27;20137;-58
2022/11/28 04:45:20;;;;;;;1.60;1.50;;;;;;;;;;4616136;27;20103;-58
2022/11/28 04:47:30;;;;;;;1.63;1.50;;;;;;;;;;4616746;27;20039;-58
2022/11/28 04:49:41;;;;;;;1.80;1.70;;;;;;;;;;4615834;27;20035;-59
2022/11/28 04:51:58;;;;;;;1.65;1.55;;;;;;;;;;4617110;27;20066;-59
2022/11/28 04:54:21;;;;;;;2.05;1.85;;;;;;;;;;4617340;27;20147;-58
2022/11/28 04:56:43;;;;;;;1.70;1.60;;;;;;;;;;4617821;27;20036;-58
2022/11/28 04:58:54;;;;;;;1.90;1.70;;;;;;;;;;4616337;27;20099;-60
2022/11/28 05:01:06;;;;;;;2.30;1.80;;;;;;;;;;4602458;27;20562;-59
2022/11/28 05:03:17;;;;;;;1.90;1.80;;;;;;;;;;4616780;27;20030;-58
2022/11/28 05:05:28;;;;;;;1.92;1.73;;;;;;;;;;4620587;27;20576;-58
2022/11/28 05:07:39;;;;;;;1.73;1.63;;;;;;;;;;4621980;27;20035;-58
2022/11/28 05:09:49;;;;;;;2.00;1.73;;;;;;;;;;4620847;27;20479;-59
2022/11/28 05:12:00;;;;;;;2.10;1.90;;;;;;;;;;4619416;27;20115;-59
2022/11/28 05:14:10;;;;;;;2.05;1.85;;;;;;;;;;4620200;27;20080;-59
2022/11/28 05:16:21;;;;;;;2.10;1.90;;;;;;;;;;4620837;27;20042;-58
2022/11/28 05:18:31;;;;;;;1.60;1.50;;;;;;;;;;4619561;27;20038;-59
2022/11/28 05:20:42;;;;;;;2.22;1.80;;;;;;;;;;4618069;27;20070;-59
2022/11/28 05:22:52;;;;;;;1.83;1.70;;;;;;;;;;4610295;27;20122;-59
2022/11/28 05:25:02;;;;;;;1.65;1.55;;;;;;;;;;4620426;27;20980;-58
2022/11/28 05:27:13;;;;;;;1.50;1.40;;;;;;;;;;4619012;27;20650;-59
2022/11/28 05:29:24;;;;;;;1.88;1.67;;;;;;;;;;4617482;27;20114;-58
2022/11/28 05:31:36;;;;;;;1.95;1.70;;;;;;;;;;4619783;27;20031;-59
2022/11/28 05:33:46;;;;;;;1.77;1.52;;;;;;;;;;4618862;27;20027;-59
2022/11/28 05:36:01;;;;;;;1.90;1.60;;;;;;;;;;4621136;27;20047;-59
2022/11/28 05:38:11;;;;;;;1.92;1.75;;;;;;;;;;4619581;27;20027;-58
2022/11/28 05:40:22;;;;;;;1.92;1.73;;;;;;;;;;4620378;27;20440;-59
2022/11/28 05:42:32;;;;;;;2.35;2.13;;;;;;;;;;4618852;27;20490;-58
2022/11/28 05:44:43;;;;;;;2.10;1.83;;;;;;;;;;4619832;27;21036;-59
2022/11/28 05:46:53;;;;;;;2.30;2.10;;;;;;;;;;4618099;27;20433;-58
2022/11/28 05:49:03;;;;;;;2.05;1.85;;;;;;;;;;4618358;27;20376;-59
2022/11/28 05:51:14;;;;;;;1.92;1.70;;;;;;;;;;4604480;27;20043;-59
2022/11/28 05:53:24;;;;;;;2.03;1.83;;;;;;;;;;4620766;27;20046;-58
2022/11/28 05:55:36;;;;;;;2.30;2.10;;;;;;;;;;4619136;27;20027;-58
2022/11/28 05:57:46;;;;;;;2.10;1.90;;;;;;;;;;4610786;27;20046;-58
2022/11/28 05:59:57;;;;;;;2.20;2.00;;;;;;;;;;4620031;27;20050;-58
2022/11/28 06:02:07;;;;;;;2.22;1.83;;;;;;;;;;4618501;27;20383;-58
2022/11/28 06:04:17;;;;;;;1.80;1.70;;;;;;;;;;4619410;27;20508;-57
2022/11/28 06:06:29;;;;;;;2.10;1.90;;;;;;;;;;4619217;27;20583;-58
2022/11/28 06:08:40;;;;;;;2.25;2.00;;;;;;;;;;4605107;27;20083;-58
2022/11/28 06:10:57;;;;;;;1.98;1.77;;;;;;;;;;4599441;27;20035;-58
2022/11/28 06:13:07;;;;;;;;;;;;;;;;;;4619565;27;20031;-59
2022/11/28 06:15:18;;;;;;;2.17;1.98;;;;;;;;;;4617964;27;19915;-57
2022/11/28 06:17:29;;;;;;;2.20;2.00;;;;;;;;;;4619405;27;20494;-58
2022/11/28 06:19:40;;;;;;;2.40;1.85;;;;;;;;;;4619086;27;20035;-58
2022/11/28 06:21:50;;;;;;;2.30;2.00;;;;;;;;;;4618178;27;20031;-58
2022/11/28 06:24:00;;;;;;;2.40;2.15;;;;;;;;;;4618719;27;20506;-58
2022/11/28 06:26:12;;;;;;;2.20;2.00;;;;;;;;;;4618122;27;20019;-58
2022/11/28 06:28:22;;;;;;;2.45;2.10;;;;;;;;;;4618822;27;20372;-58
2022/11/28 06:30:33;;;;;;;2.47;2.20;;;;;;;;;;4619602;27;20114;-58
2022/11/28 06:32:43;;;;;;;2.60;2.30;;;;;;;;;;4619429;27;20092;-58
2022/11/28 06:34:53;;;;;;;2.50;2.30;;;;;;;;;;4619620;27;20088;-58
2022/11/28 06:37:04;;;;;;;2.92;2.28;;;;;;;;;;4619365;27;20039;-58
2022/11/28 06:39:15;;;;;;;2.58;2.28;;;;;;;;;;4619272;27;20033;-58
2022/11/28 06:41:25;;;;;;;3.10;2.60;;;;;;;;;;4619057;27;20065;-58
2022/11/28 06:43:36;;;;;;;2.60;2.10;;;;;;;;;;4619235;27;20029;-58
2022/11/28 06:45:46;;;;;;;2.30;2.03;;;;;;;;;;4617958;27;20038;-59
2022/11/28 06:47:56;;;;;;;2.67;2.30;;;;;;;;;;4617923;27;20503;-58
2022/11/28 06:50:08;;;;;;;2.65;2.40;;;;;;;;;;4618681;27;20066;-58
2022/11/28 06:52:18;;;;;;;2.20;2.00;;;;;;;;;;4616597;27;20072;-58
2022/11/28 06:54:29;;;;;;;2.42;2.20;;;;;;;;;;4602482;27;20074;-58
2022/11/28 06:56:39;;;;;;;3.10;2.10;;;;;;;;;;4617167;27;20123;-58
2022/11/28 06:58:52;;;;;;;2.40;2.10;;;;;;;;;;4617117;27;20112;-57
2022/11/28 07:01:09;;;;;;;2.53;2.28;;;;;;;;;;4598017;27;20031;-58
2022/11/28 07:03:19;;;;;;;2.60;2.40;;;;;;;;;;4617310;27;21026;-58
2022/11/28 07:05:29;;;;;;;2.17;1.83;;;;;;;;;;4619162;27;20110;-58
2022/11/28 07:07:40;;;;;;;2.55;2.28;;;;;;;;;;4616509;27;20068;-59
2022/11/28 07:09:51;;;;;;;3.20;2.40;;;;;;;;;;4616241;27;20538;-58
2022/11/28 07:12:01;;;;;;;2.50;2.30;;;;;;;;;;4597211;27;20104;-58
2022/11/28 07:14:11;;;;;;;2.50;2.30;;;;;;;;;;4616948;27;20060;-58
2022/11/28 07:16:31;;;;;;;2.63;2.42;;;;;;;;;;4601547;27;20812;-58
2022/11/28 07:18:42;;;;;;;2.40;2.20;;;;;;;;;;4618056;27;20035;-58
2022/11/28 07:20:52;;;;;;;3.20;2.65;;;;;;;;;;4617267;27;20027;-58
2022/11/28 07:23:02;;;;;;;3.05;2.60;;;;;;;;;;4616378;27;20050;-58
2022/11/28 07:25:13;;;;;;;2.47;2.20;;;;;;;;;;4601612;27;20031;-58
2022/11/28 07:27:24;;;;;;;2.60;2.40;;;;;;;;;;4616332;27;20053;-58
2022/11/28 07:29:37;;;;;;;2.58;2.38;;;;;;;;;;4618077;27;20039;-58
2022/11/28 07:31:47;;;;;;;2.72;2.50;;;;;;;;;;4616131;27;20643;-59
2022/11/28 07:33:58;;;;;;;2.65;2.28;;;;;;;;;;4617191;27;20062;-58
2022/11/28 07:36:11;;;;;;;2.55;2.30;;;;;;;;;;4603933;27;20062;-58
2022/11/28 07:38:21;;;;;;;2.22;2.03;;;;;;;;;;4616600;27;20058;-58
2022/11/28 07:40:31;;;;;;;2.35;2.08;;;;;;;;;;4617672;27;20126;-61
2022/11/28 07:42:42;;;;;;;3.00;2.38;;;;;;;;;;4617175;27;20035;-61
2022/11/28 07:44:52;;;;;;;2.67;2.47;;;;;;;;;;4616489;27;20034;-61
2022/11/28 07:47:03;;;;;;;2.42;2.22;;;;;;;;;;4614773;27;20031;-61
2022/11/28 07:49:13;;;;;;;2.60;2.40;;;;;;;;;;4601490;27;20053;-60
2022/11/28 07:51:25;;;;;;;2.80;2.35;;;;;;;;;;4617183;27;20139;-60
2022/11/28 07:53:36;;;;;;;2.60;2.40;;;;;;;;;;4601822;27;20034;-60
2022/11/28 07:55:47;;;;;;;2.60;2.40;;;;;;;;;;4617460;27;20045;-61
2022/11/28 07:57:57;;;;;;;2.63;2.30;;;;;;;;;;4617498;27;20038;-59
2022/11/28 08:00:07;;;;;;;2.60;2.38;;;;;;;;;;4618242;27;20031;-60
2022/11/28 08:02:22;;;;;;;2.58;2.38;;;;;;;;;;4617078;27;20023;-61
2022/11/28 08:04:33;;;;;;;2.50;2.30;;;;;;;;;;4616834;27;20035;-60
2022/11/28 08:06:43;;;;;;;2.45;2.25;;;;;;;;;;4616324;27;20510;-60
2022/11/28 08:08:54;;;;;;;2.70;2.50;;;;;;;;;;4598030;27;20503;-61
2022/11/28 08:11:05;;;;;;;2.50;2.30;;;;;;;;;;4596915;27;20047;-60
2022/11/28 08:13:15;;;;;;;2.50;2.30;;;;;;;;;;4615484;27;20027;-61
2022/11/28 08:15:30;;;;;;;2.85;2.50;;;;;;;;;;4615966;27;20023;-60
2022/11/28 08:17:40;;;;;;;2.70;2.50;;;;;;;;;;4615666;27;20596;-61
2022/11/28 08:19:51;;;;;;;2.55;2.25;;;;;;;;;;4616982;27;20725;-61
2022/11/28 08:22:01;;;;;;;2.75;2.47;;;;;;;;;;4616225;27;20042;-61
2022/11/28 08:24:12;;;;;;;2.78;2.50;;;;;;;;;;4617444;27;20039;-61
2022/11/28 08:26:23;;;;;;;2.75;2.45;;;;;;;;;;4616275;27;20058;-63
2022/11/28 08:28:33;;;;;;;2.45;2.25;;;;;;;;;;4599348;27;20645;-63
2022/11/28 08:30:44;;;;;;;2.80;2.45;;;;;;;;;;4616426;27;20034;-61
2022/11/28 08:32:54;;;;;;;3.03;2.72;;;;;;;;;;4616675;27;20034;-61
2022/11/28 08:35:04;;;;;;;2.88;2.50;;;;;;;;;;4615329;27;20479;-59
2022/11/28 08:37:15;;;;;;;2.75;2.53;;;;;;;;;;4617514;27;20501;-63
2022/11/28 08:39:25;;;;;;;3.35;2.50;;;;;;;;;;4615511;27;20035;-62
2022/11/28 08:41:35;;;;;;;2.92;2.63;;;;;;;;;;4599498;27;20048;-61
2022/11/28 08:43:46;;;;;;;2.90;2.58;;;;;;;;;;4615346;27;20493;-61
2022/11/28 08:45:57;;;;;;;2.83;2.60;;;;;;;;;;4616688;27;20643;-61
2022/11/28 08:48:07;;;;;;;3.00;2.70;;;;;;;;;;4616734;27;20056;-60
2022/11/28 08:50:17;;;;;;;3.33;2.88;;;;;;;;;;4617315;27;20474;-61
2022/11/28 08:52:28;;;;;;;3.10;2.80;;;;;;;;;;4614986;27;20058;-61
2022/11/28 08:54:38;;;;;;;3.40;3.10;;;;;;;;;;4596871;27;20030;-61
2022/11/28 08:56:48;;;;;;;3.63;3.13;;;;;;;;;;4616449;27;20047;-63
2022/11/28 08:58:59;;;;;;;3.50;3.15;;;;;;;;;;4614781;27;20049;-60
2022/11/28 09:01:22;;;;;;;3.97;3.55;;;;;;;;;;4616961;27;20091;-62
2022/11/28 09:03:33;;;;;;;3.53;3.10;;;;;;;;;;4596946;27;20041;-61
2022/11/28 09:05:44;;;;;;;3.10;2.80;;;;;;;;;;4596909;27;20050;-61
2022/11/28 09:07:55;;;;;;;3.13;2.83;;;;;;;;;;4616388;27;20039;-61
2022/11/28 09:10:06;;;;;;;3.45;3.15;;;;;;;;;;4615598;27;20031;-61
2022/11/28 09:12:16;;;;;;;3.05;2.75;;;;;;;;;;4614996;27;20043;-61
2022/11/28 09:14:26;;;;;;;2.88;2.58;;;;;;;;;;4615259;27;20118;-61
2022/11/28 09:16:38;;;;;;;3.63;3.00;;;;;;;;;;4602238;27;20081;-64
2022/11/28 09:18:48;;;;;;;3.00;2.70;;;;;;;;;;4616082;27;20023;-64
2022/11/28 09:21:00;;;;;;;2.72;2.50;;;;;;;;;;4613735;27;20039;-64
2022/11/28 09:23:10;;;;;;;3.85;3.05;;;;;;;;;;4615481;27;20039;-63
2022/11/28 09:25:20;;;;;;;3.40;3.10;;;;;;;;;;4615411;27;20023;-64
2022/11/28 09:27:30;;;;;;;3.13;2.80;;;;;;;;;;4616067;27;20242;-61
2022/11/28 09:29:41;;;;;;;3.20;2.90;;;;;;;;;;4615986;27;20446;-61
2022/11/28 09:31:51;;;;;;;3.28;2.97;;;;;;;;;;4614438;27;20055;-61
2022/11/28 09:34:02;;;;;;;3.67;3.17;;;;;;;;;;4615833;27;20156;-61
2022/11/28 09:36:14;;;;;;;3.17;2.80;;;;;;;;;;4615880;27;20099;-61
2022/11/28 09:38:25;;;;;;;3.42;2.90;;;;;;;;;;4616181;27;20022;-62
2022/11/28 09:40:37;;;;;;;3.38;3.08;;;;;;;;;;4613789;27;20491;-61
2022/11/28 09:42:47;;;;;;;2.97;2.67;;;;;;;;;;4596993;27;20035;-61
2022/11/28 09:45:01;;;;;;;3.20;2.90;;;;;;;;;;4615486;27;20368;-61
2022/11/28 09:47:20;;;;;;;3.10;2.80;;;;;;;;;;4599117;27;20084;-61
2022/11/28 09:49:36;;;;;;;3.30;3.00;;;;;;;;;;4615795;27;20035;-61
2022/11/28 09:52:10;;;;;;;3.33;3.00;;;;;;;;;;4618640;27;20062;-60
2022/11/28 09:54:23;;;;;;;3.33;3.03;;;;;;;;;;4619116;27;20039;-61
2022/11/28 09:56:34;;;;;;;3.65;3.00;;;;;;;;;;4617612;27;20084;-62
2022/11/28 09:58:50;;;;;;;3.30;2.97;;;;;;;;;;4619596;27;20045;-61
2022/11/28 10:01:21;;;;;;;3.20;2.90;;;;;;;;;;4618563;27;20030;-61
2022/11/28 10:03:38;;;;;;;3.42;3.13;;;;;;;;;;4619588;27;20099;-61
2022/11/28 10:05:52;;;;;;;3.80;3.40;;;;;;;;;;4599961;27;20039;-61
2022/11/28 10:08:05;;;;;;;3.88;3.45;;;;;;;;;;4618123;27;20035;-61
2022/11/28 10:10:24;;;;;;;3.72;3.28;;;;;;;;;;4605647;27;20034;-60
2022/11/28 10:12:49;;;;;;;3.83;3.38;;;;;;;;;;4617944;27;20038;-61
2022/11/28 10:15:18;;;;;;;3.72;3.42;;;;;;;;;;4619276;27;20116;-61
2022/11/28 10:17:43;;;;;;;3.92;3.10;;;;;;;;;;4618670;27;20035;-62
2022/11/28 10:20:14;;;;;;;3.95;3.33;;;;;;;;;;4618118;27;20032;-61
2022/11/28 10:22:33;;;;;;;3.72;3.30;;;;;;;;;;4616051;27;20047;-62
2022/11/28 10:24:46;;;;;;;3.35;2.92;;;;;;;;;;4619629;27;20023;-61
2022/11/28 10:27:00;;;;;;;3.75;3.28;;;;;;;;;;4617963;27;20111;-61
2022/11/28 10:29:17;;;;;;;3.47;3.17;;;;;;;;;;4618885;27;20184;-61
2022/11/28 10:31:31;;;;;;;3.50;3.10;;;;;;;;;;4599502;27;20769;-61
2022/11/28 10:33:51;;;;;;;3.75;3.08;;;;;;;;;;4617843;27;20038;-60
2022/11/28 10:36:02;;;;;;;3.47;3.00;;;;;;;;;;4618141;27;20038;-61
2022/11/28 10:38:13;;;;;;;3.80;3.40;;;;;;;;;;4619014;27;20023;-61
2022/11/28 10:40:35;;;;;;;3.80;3.28;;;;;;;;;;4601299;27;20681;-61
2022/11/28 10:43:05;;;;;;;4.03;3.30;;;;;;;;;;4618582;27;20074;-61
2022/11/28 10:45:21;;;;;;;3.88;3.47;;;;;;;;;;4564396;27;20055;-61
2022/11/28 10:47:43;;;;;;;4.03;3.20;;;;;;;;;;4618205;27;20709;-62
2022/11/28 10:50:03;;;;;;;3.50;3.20;;;;;;;;;;4620089;27;20726;-62
2022/11/28 10:52:49;;;;;;;3.30;3.00;;;;;;;;;;4619350;27;20046;-64
2022/11/28 10:55:11;;;;;;;3.13;2.78;;;;;;;;;;4548652;28;20040;-61
2022/11/28 10:57:36;;;;;;;3.30;3.00;;;;;;;;;;4598290;27;20051;-63
2022/11/28 11:00:19;;;;;;;3.22;2.92;;;;;;;;;;4618098;27;20034;-63
2022/11/28 11:02:37;;;;;;;3.53;3.20;;;;;;;;;;4595390;27;20042;-61
2022/11/28 11:04:47;;;;;;;3.50;3.13;;;;;;;;;;4617772;27;20030;-60
2022/11/28 11:07:08;;;;;;;3.88;3.40;;;;;;;;;;4617703;27;20567;-61
2022/11/28 11:09:19;;;;;;;3.97;3.28;;;;;;;;;;4617154;27;20050;-61
2022/11/28 11:11:32;;;;;;;4.00;3.60;;;;;;;;;;4617199;27;20087;-62
2022/11/28 11:13:54;;;;;;;3.92;3.20;;;;;;;;;;4602342;27;20736;-62
2022/11/28 11:16:06;;;;;;;3.72;2.95;;;;;;;;;;4617260;27;20611;-61
2022/11/28 11:18:24;;;;;;;3.35;3.05;;;;;;;;;;4599132;27;20049;-62
2022/11/28 11:20:36;;;;;;;3.45;3.15;;;;;;;;;;4618250;27;20038;-61
2022/11/28 11:22:54;;;;;;;3.40;3.10;;;;;;;;;;4617823;27;20165;-61
2022/11/28 11:25:15;;;;;;;3.90;3.50;;;;;;;;;;4618202;27;20034;-61
2022/11/28 11:27:25;;;;;;;3.30;3.00;;;;;;;;;;4617407;27;20080;-61
2022/11/28 11:29:36;;;;;;;3.70;3.25;;;;;;;;;;4617330;27;20122;-61
2022/11/28 11:31:49;;;;;;;3.67;3.20;;;;;;;;;;4616807;27;20046;-61
2022/11/28 11:34:01;;;;;;;3.47;3.05;;;;;;;;;;4616957;27;20502;-61
2022/11/28 11:36:25;;;;;;;3.80;3.40;;;;;;;;;;4617169;27;20084;-62
2022/11/28 11:38:35;;;;;;;4.13;3.72;;;;;;;;;;4618014;27;20034;-61
2022/11/28 11:40:46;;;;;;;3.75;3.30;;;;;;;;;;4618433;27;20045;-61
2022/11/28 11:42:58;;;;;;;3.50;3.20;;;;;;;;;;4616765;27;20148;-61
2022/11/28 11:45:41;;;;;;;3.88;3.47;;;;;;;;;;4599351;27;20047;-61
2022/11/28 11:47:51;;;;;;;3.50;3.17;;;;;;;;;;4581960;27;20030;-61
2022/11/28 11:50:02;;;;;;;3.50;3.20;;;;;;;;;;4597865;27;20471;-62
2022/11/28 11:52:26;;;;;;;3.50;3.20;;;;;;;;;;4615770;27;20039;-61
2022/11/28 11:54:36;;;;;;;4.05;3.20;;;;;;;;;;4614946;27;20035;-61
2022/11/28 11:56:47;;;;;;;3.38;2.97;;;;;;;;;;4603726;27;20035;-61
2022/11/28 11:58:59;;;;;;;3.40;3.08;;;;;;;;;;4618051;27;20101;-61
2022/11/28 12:01:10;;;;;;;4.00;3.60;;;;;;;;;;4617231;27;20027;-61
2022/11/28 12:03:21;;;;;;;3.55;3.10;;;;;;;;;;4616201;27;20058;-60
2022/11/28 12:05:47;;;;;;;3.65;3.28;;;;;;;;;;4616764;27;20134;-62
2022/11/28 12:08:03;;;;;;;3.83;3.43;;;;;;;;;;4618695;27;20778;-61
2022/11/28 12:10:16;;;;;;;3.33;3.00;;;;;;;;;;4617536;27;20256;-61
2022/11/28 12:12:29;;;;;;;3.00;2.70;;;;;;;;;;4603013;27;20180;-61
2022/11/28 12:14:40;;;;;;;3.17;2.88;;;;;;;;;;4615870;27;20042;-61
2022/11/28 12:16:54;;;;;;;3.80;3.17;;;;;;;;;;4617004;27;20042;-61
2022/11/28 12:19:08;;;;;;;3.13;2.83;;;;;;;;;;4596836;27;20039;-61
2022/11/28 12:21:37;;;;;;;3.25;2.90;;;;;;;;;;4616289;27;20672;-61
2022/11/28 12:23:47;;;;;;;4.28;3.83;;;;;;;;;;4616038;27;20034;-61
2022/11/28 12:26:17;;;;;;;4.35;3.72;;;;;;;;;;4616440;27;20046;-61
2022/11/28 12:28:33;;;;;;;3.65;3.35;;;;;;;;;;4618111;27;20039;-61
2022/11/28 12:30:52;;;;;;;3.90;3.50;;;;;;;;;;4598348;27;20044;-61
2022/11/28 12:33:10;;;;;;;3.60;3.13;;;;;;;;;;4602612;27;20200;-61
2022/11/28 12:35:20;;;;;;;3.80;3.38;;;;;;;;;;4615602;27;20043;-61
2022/11/28 12:37:38;;;;;;;4.13;3.60;;;;;;;;;;4601316;27;20032;-61
2022/11/28 12:40:09;;;;;;;3.60;3.30;;;;;;;;;;4616402;27;20042;-61
2022/11/28 12:42:26;;;;;;;3.33;3.03;;;;;;;;;;4599102;27;20130;-61
2022/11/28 12:44:39;;;;;;;3.40;3.08;;;;;;;;;;4618331;27;20023;-61
2022/11/28 12:46:50;;;;;;;3.75;3.10;;;;;;;;;;4615952;27;20031;-61
2022/11/28 12:49:06;;;;;;;3.47;3.17;;;;;;;;;;4618123;27;20035;-61
2022/11/28 12:51:35;;;;;;;4.27;3.20;;;;;;;;;;4617363;27;20038;-61
2022/11/28 12:53:58;;;;;;;3.25;2.95;;;;;;;;;;4615699;27;20047;-61
2022/11/28 12:56:21;;;;;;;3.97;3.20;;;;;;;;;;4616699;27;20337;-61
2022/11/28 12:58:49;;;;;;;3.95;3.55;;;;;;;;;;4616630;27;20596;-61
2022/11/28 13:01:00;;;;;;;3.70;2.90;;;;;;;;;;4617246;27;20127;-61
2022/11/28 13:03:19;;;;;;;2.78;2.58;;;;;;;;;;4616710;27;20157;-61
2022/11/28 13:05:32;;;;;;;3.10;2.80;;;;;;;;;;4616093;27;20034;-61
2022/11/28 13:08:09;;;;;;;3.35;2.60;;;;;;;;;;4616724;27;20668;-61
2022/11/28 13:10:25;;;;;;;2.97;2.67;;;;;;;;;;4597217;27;20593;-61
2022/11/28 13:12:54;;;;;;;2.97;2.63;;;;;;;;;;4615154;27;20050;-61
2022/11/28 13:15:30;;;;;;;3.10;2.80;;;;;;;;;;4615745;27;20951;-61
2022/11/28 13:18:01;;;;;;;3.00;2.60;;;;;;;;;;4609553;27;20043;-61
2022/11/28 13:20:18;;;;;;;3.40;2.90;;;;;;;;;;4614256;27;20047;-61
2022/11/28 13:22:36;;;;;;;3.20;2.90;;;;;;;;;;4600689;27;20043;-61
2022/11/28 13:25:01;;;;;;;3.33;3.03;;;;;;;;;;4591326;27;20079;-61